Thunder radar more information blitzortung!


Löydät sääaseman tiedot myös:

European Weather Network

Finland Weather Exchange

Weather Underground

AWEKAS



Weather Underground säähistoriasivu

Päivittäin yhteenveto Syyskuu 10, 2017 Yksiköt:  Englantilaiset    Metriset   Molemmat
« Edellinen Päivä
Seuraava Päivä »
Päivittäin Viikoittain Kuukausittain Vuosittain Mukautettu
  Korkea: Matala: Keskiarvo:
Lämpötila: TemperatureC °F 11.8 °F 13.7 °F
Kastepiste: DewpointC °F 10.4 °F 12.4 °F
Kosteus: Humidity % 80 % 91 %
Tuulen nopeus: WindSpeedKMH mph 0.0 mph 3.9 mph
Tuulenpuuska: WindSpeedGustKMH mph - -
Tuuli:- - South
Ilmanpaine: PressurehPa in 994.1 in -
Sade: 0.0 in    
Historical Graphs
 
 
Taulukkotiedot Syyskuu 10, 2017
Aika Lämpötila Kastepiste Ilmanpaine Tuuli Tuulen nopeus Tuulenpuuska Kosteus Sademäärä (tunneittain)
TemperatureC °F DewpointC °F PressurehPa in Calm     Humidity % HourlyPrecipMM in
00:00 12.3 °F 11.9 °F 1000.2 in Calm   6.4 mph 97 % 0.0 in
00:15 12.4 °F 12.1 °F 1000.2 in Calm   3.2 mph 98 % 0.0 in
00:30 12.5 °F 12.0 °F 1000.2 in Calm   8.0 mph 97 % 0.0 in
00:45 12.6 °F 12.3 °F 1000.2 in Calm   6.4 mph 98 % 0.0 in
01:00 12.6 °F 12.3 °F 1000.2 in Calm   1.6 mph 98 % 0.0 in
01:15 12.7 °F 12.4 °F 1000.2 in Calm   8.0 mph 98 % 0.0 in
01:30 12.7 °F 12.4 °F 999.9 in Calm   4.8 mph 98 % 0.0 in
01:45 12.8 °F 12.5 °F 999.9 in Calm   6.4 mph 98 % 0.0 in
02:00 12.8 °F 12.5 °F 999.9 in Calm   8.0 mph 98 % 0.0 in
02:15 12.9 °F 12.6 °F 999.5 in Calm   3.2 mph 98 % 0.0 in
02:30 12.9 °F 12.6 °F 999.5 in Calm   3.2 mph 98 % 0.0 in
02:45 12.9 °F 12.6 °F 999.2 in Calm   3.2 mph 98 % 0.0 in
03:00 13.0 °F 12.7 °F 999.2 in Calm   6.4 mph 98 % 0.0 in
03:15 13.1 °F 12.7 °F 999.2 in ESE 1.6 mph 9.7 mph 98 % 0.0 in
03:30 13.1 °F 12.7 °F 998.9 in Calm   3.2 mph 98 % 0.0 in
03:45 13.1 °F 12.8 °F 998.9 in Calm   3.2 mph 98 % 0.0 in
04:00 13.2 °F 12.9 °F 998.5 in Calm   1.6 mph 98 % 0.0 in
04:15 13.2 °F 12.9 °F 998.2 in Calm   6.4 mph 98 % 0.0 in
04:30 13.2 °F 12.9 °F 998.2 in Calm   1.6 mph 98 % 0.0 in
04:45 13.3 °F 13.0 °F 997.9 in SSE 1.6 mph 8.0 mph 98 % 0.0 in
05:00 13.3 °F 13.0 °F 997.5 in SE 1.6 mph 8.0 mph 98 % 0.0 in
05:15 13.3 °F 13.0 °F 997.2 in SE 1.6 mph 8.0 mph 98 % 0.0 in
05:30 13.3 °F 13.0 °F 997.2 in Calm   8.0 mph 98 % 0.0 in
05:45 13.4 °F 13.1 °F 996.8 in SE 1.6 mph 9.7 mph 98 % 0.0 in
06:00 13.4 °F 13.1 °F 996.8 in SE 1.6 mph 8.0 mph 98 % 0.0 in
06:15 13.4 °F 13.1 °F 996.5 in SSE 1.6 mph 14.5 mph 98 % 0.0 in
06:30 13.5 °F 13.2 °F 996.5 in SSE 3.2 mph 9.7 mph 98 % 0.0 in
06:45 13.5 °F 13.2 °F 996.5 in SSE 3.2 mph 17.7 mph 98 % 0.0 in
07:00 13.5 °F 13.2 °F 996.2 in South 3.2 mph 14.5 mph 98 % 0.0 in
07:15 13.5 °F 13.2 °F 996.2 in SSE 4.8 mph 14.5 mph 98 % 0.0 in
07:30 13.6 °F 13.2 °F 996.2 in SSE 3.2 mph 11.3 mph 98 % 0.0 in
07:45 13.6 °F 13.2 °F 996.2 in South 3.2 mph 12.9 mph 98 % 0.0 in
08:00 13.6 °F 13.3 °F 995.8 in SSE 4.8 mph 12.9 mph 98 % 0.0 in
08:15 13.6 °F 13.3 °F 995.8 in South 3.2 mph 17.7 mph 98 % 0.0 in
08:30 13.7 °F 13.4 °F 995.8 in South 4.8 mph 17.7 mph 98 % 0.0 in
08:45 13.7 °F 13.3 °F 995.5 in SSE 4.8 mph 14.5 mph 97 % 0.0 in
09:00 13.8 °F 13.3 °F 995.5 in SSE 3.2 mph 17.7 mph 97 % 0.0 in
09:15 13.8 °F 13.4 °F 995.5 in SSE 3.2 mph 17.7 mph 97 % 0.0 in
09:30 13.9 °F 13.5 °F 995.8 in SSE 4.8 mph 19.3 mph 97 % 0.0 in
09:45 13.9 °F 13.5 °F 995.5 in South 3.2 mph 16.1 mph 97 % 0.0 in
10:00 14.1 °F 13.6 °F 995.5 in SSE 3.2 mph 14.5 mph 97 % 0.0 in
10:15 14.2 °F 13.8 °F 995.1 in SSE 4.8 mph 16.1 mph 97 % 0.0 in
10:30 14.3 °F 13.9 °F 995.1 in SSE 4.8 mph 17.7 mph 97 % 0.0 in
10:45 14.4 °F 13.8 °F 995.1 in SSE 4.8 mph 16.1 mph 96 % 0.0 in
11:00 14.6 °F 14.0 °F 995.1 in SSE 3.2 mph 19.3 mph 96 % 0.0 in
11:15 14.8 °F 14.0 °F 994.8 in SSE 4.8 mph 12.9 mph 95 % 0.0 in
11:30 14.8 °F 14.0 °F 995.1 in SSE 4.8 mph 11.3 mph 95 % 0.0 in
11:45 14.9 °F 14.3 °F 994.8 in South 3.2 mph 17.7 mph 96 % 0.0 in
12:00 15.0 °F 14.2 °F 994.8 in SSE 4.8 mph 20.9 mph 95 % 0.0 in
12:15 15.2 °F 14.2 °F 994.5 in South 6.4 mph 32.2 mph 94 % 0.0 in
12:30 15.2 °F 14.1 °F 994.1 in SSE 6.4 mph 17.7 mph 93 % 0.0 in
12:45 15.3 °F 14.2 °F 994.1 in South 6.4 mph 19.3 mph 93 % 0.0 in
13:00 15.3 °F 13.9 °F 994.1 in South 8.0 mph 22.5 mph 91 % 0.0 in
13:15 15.4 °F 14.0 °F 994.1 in South 6.4 mph 24.1 mph 91 % 0.0 in
13:30 15.6 °F 13.8 °F 994.1 in South 8.0 mph 22.5 mph 89 % 0.0 in
13:45 15.5 °F 13.9 °F 994.5 in SSW 8.0 mph 17.7 mph 90 % 0.0 in
14:00 15.6 °F 13.9 °F 994.8 in South 6.4 mph 19.3 mph 90 % 0.0 in
14:15 15.1 °F 13.9 °F 994.8 in SSW 9.7 mph 19.3 mph 93 % 0.0 in
14:30 15.4 °F 14.0 °F 994.8 in South 11.3 mph 27.4 mph 91 % 0.0 in
14:45 15.4 °F 13.8 °F 995.1 in SSW 8.0 mph 24.1 mph 90 % 0.0 in
15:00 15.4 °F 13.1 °F 995.5 in SSW 11.3 mph 33.8 mph 86 % 0.0 in
15:15 15.3 °F 12.8 °F 995.5 in SSW 11.3 mph 32.2 mph 85 % 0.0 in
15:30 14.9 °F 12.6 °F 995.8 in SSW 9.7 mph 27.4 mph 86 % 0.0 in
15:45 14.9 °F 12.3 °F 995.8 in SSW 11.3 mph 37.0 mph 84 % 0.0 in
16:00 14.8 °F 12.0 °F 995.8 in South 9.7 mph 24.1 mph 83 % 0.0 in
16:15 15.2 °F 11.9 °F 995.8 in SSW 9.7 mph 27.4 mph 81 % 0.0 in
16:30 15.0 °F 11.8 °F 996.2 in SSW 9.7 mph 24.1 mph 81 % 0.0 in
16:45 14.9 °F 11.7 °F 996.2 in SSW 9.7 mph 29.0 mph 81 % 0.0 in
17:00 14.9 °F 11.5 °F 996.2 in South 8.0 mph 22.5 mph 80 % 0.0 in
17:15 14.7 °F 11.3 °F 996.5 in SSW 9.7 mph 22.5 mph 80 % 0.0 in
17:30 14.6 °F 11.3 °F 996.5 in SSW 9.7 mph 25.7 mph 81 % 0.0 in
17:45 14.4 °F 11.4 °F 996.8 in South 8.0 mph 20.9 mph 82 % 0.0 in
18:00 14.3 °F 11.2 °F 996.8 in SSW 8.0 mph 17.7 mph 82 % 0.0 in
18:15 14.2 °F 11.3 °F 997.2 in SSW 8.0 mph 22.5 mph 83 % 0.0 in
18:30 14.2 °F 11.1 °F 997.2 in SSW 9.7 mph 29.0 mph 82 % 0.0 in
18:45 14.2 °F 11.0 °F 997.2 in South 4.8 mph 16.1 mph 81 % 0.0 in
19:00 14.2 °F 10.8 °F 997.2 in South 6.4 mph 22.5 mph 80 % 0.0 in
19:15 14.1 °F 10.7 °F 997.2 in South 4.8 mph 16.1 mph 80 % 0.0 in
19:30 13.9 °F 10.9 °F 997.2 in South 4.8 mph 17.7 mph 82 % 0.0 in
19:45 13.8 °F 10.8 °F 997.2 in South 4.8 mph 12.9 mph 82 % 0.0 in
20:00 13.7 °F 10.7 °F 997.2 in SSW 3.2 mph 14.5 mph 82 % 0.0 in
20:15 13.7 °F 10.7 °F 997.2 in South 3.2 mph 11.3 mph 82 % 0.0 in
20:30 13.6 °F 10.5 °F 997.2 in South 1.6 mph 9.7 mph 82 % 0.0 in
20:45 13.4 °F 10.6 °F 997.5 in SSE 1.6 mph 9.7 mph 83 % 0.0 in
21:00 13.1 °F 10.4 °F 997.5 in South 1.6 mph 9.7 mph 84 % 0.0 in
21:15 13.0 °F 10.7 °F 997.5 in Calm   6.4 mph 86 % 0.0 in
21:30 12.9 °F 10.8 °F 997.5 in SSW 1.6 mph 6.4 mph 87 % 0.0 in
21:45 12.7 °F 10.8 °F 997.9 in SSW 1.6 mph 6.4 mph 88 % 0.0 in
22:00 12.6 °F 10.8 °F 997.9 in Calm   8.0 mph 89 % 0.0 in
22:15 12.6 °F 11.0 °F 997.9 in South 1.6 mph 8.0 mph 90 % 0.0 in
22:30 12.6 °F 11.0 °F 997.9 in South 1.6 mph 8.0 mph 90 % 0.0 in
22:45 12.5 °F 10.9 °F 997.9 in SSE 1.6 mph 8.0 mph 90 % 0.0 in
23:00 12.4 °F 11.0 °F 997.9 in South 1.6 mph 9.7 mph 91 % 0.0 in
23:15 12.2 °F 10.8 °F 997.9 in Calm   8.0 mph 91 % 0.0 in
23:30 12.0 °F 10.7 °F 997.9 in South 1.6 mph 8.0 mph 92 % 0.0 in
23:45 11.8 °F 10.7 °F 997.9 in South 1.6 mph 8.0 mph 93 % 0.0 in
Esan sääasema
Terveisin Weather Underground - 2.75 mb

Alkuperäinen skripti  Jim McMurry - jmcmurry@mwt.net Sovitettu myös templatelle  Wim van der Kuil - Leuven-Template.eu

Laitteet joita käytämme:

Sääasema
Davis VP2

Sääasemaohjelma
Cumulus

Sääaseman tietokone
Asus EeePC

Palveluntarjoaja
Suncomet

Davis VP2

Cumulus

Asus EeePC

Suncomet